Time;durP1;ratioP1;P1;durP2;ratioP2;P2;SDS_P1;SDS_P2;PMS_P1;PMS_P2;Temp;Humidity;BMP_temperature;BMP_pressure;BME280_temperature;BME280_humidity;BME280_pressure;Samples;Min_cycle;Max_cycle;Signal;HPM_P1;HPM_P2
2022/08/23 00:00:08;;;;;;;9.43;4.35;;;;;;;;;;5105598;28;20044;-68
2022/08/23 00:02:41;;;;;;;10.60;4.20;;;;;;;;;;5075186;28;20056;-67
2022/08/23 00:05:13;;;;;;;10.25;4.55;;;;;;;;;;5075237;28;20051;-67
2022/08/23 00:07:44;;;;;;;12.23;4.68;;;;;;;;;;5107427;28;20377;-67
2022/08/23 00:10:16;;;;;;;13.95;4.82;;;;;;;;;;5056646;28;20048;-69
2022/08/23 00:12:47;;;;;;;13.93;5.10;;;;;;;;;;5075344;28;20048;-68
2022/08/23 00:15:19;;;;;;;10.02;5.00;;;;;;;;;;5072815;28;20061;-67
2022/08/23 00:17:50;;;;;;;11.90;4.82;;;;;;;;;;5072354;28;20071;-68
2022/08/23 00:20:21;;;;;;;11.60;4.78;;;;;;;;;;5072856;28;20056;-67
2022/08/23 00:22:51;;;;;;;9.85;4.47;;;;;;;;;;5072645;28;20063;-68
2022/08/23 00:25:22;;;;;;;10.18;4.60;;;;;;;;;;5072427;28;20220;-68
2022/08/23 00:27:53;;;;;;;13.57;4.88;;;;;;;;;;5072533;28;20067;-69
2022/08/23 00:30:23;;;;;;;11.27;4.88;;;;;;;;;;5072561;28;20570;-69
2022/08/23 00:32:54;;;;;;;11.32;4.65;;;;;;;;;;5072554;28;20055;-69
2022/08/23 00:35:26;;;;;;;13.18;5.63;;;;;;;;;;5072454;28;20065;-68
2022/08/23 00:37:57;;;;;;;13.13;5.30;;;;;;;;;;5022688;28;20045;-68
2022/08/23 00:40:51;;;;;;;13.25;5.03;;;;;;;;;;5072492;28;20051;-68
2022/08/23 00:49:33;;;;;;;12.25;5.00;;;;;;;;;;5072210;28;20048;-68
2022/08/23 00:52:16;;;;;;;9.82;4.95;;;;;;;;;;5071970;28;20052;-69
2022/08/23 00:54:47;;;;;;;13.05;5.28;;;;;;;;;;5007500;28;20538;-68
2022/08/23 00:57:19;;;;;;;11.30;4.80;;;;;;;;;;4992613;28;20530;-68
2022/08/23 00:59:50;;;;;;;11.05;5.07;;;;;;;;;;4992788;28;20076;-69
2022/08/23 01:02:21;;;;;;;15.55;4.95;;;;;;;;;;4997012;28;20125;-68
2022/08/23 01:04:57;;;;;;;13.10;5.22;;;;;;;;;;5012103;28;20050;-69
2022/08/23 01:07:38;;;;;;;13.45;5.20;;;;;;;;;;5012020;28;20068;-69
2022/08/23 01:10:24;;;;;;;15.60;4.95;;;;;;;;;;5011690;28;20046;-69
2022/08/23 01:13:07;;;;;;;11.25;5.10;;;;;;;;;;5011856;28;20049;-70
2022/08/23 01:15:51;;;;;;;16.30;5.68;;;;;;;;;;5012036;28;20046;-69
2022/08/23 01:18:25;;;;;;;13.05;4.88;;;;;;;;;;5011750;28;20046;-69
2022/08/23 01:21:12;;;;;;;15.18;5.07;;;;;;;;;;5020295;28;20563;-69
2022/08/23 01:23:50;;;;;;;11.88;4.53;;;;;;;;;;5031529;28;20064;-69
2022/08/23 01:26:23;;;;;;;11.43;4.80;;;;;;;;;;4998477;28;20041;-68
2022/08/23 01:28:56;;;;;;;13.77;4.63;;;;;;;;;;4995201;28;20046;-69
2022/08/23 01:31:28;;;;;;;10.60;4.80;;;;;;;;;;5011338;28;20414;-69
2022/08/23 01:34:02;;;;;;;11.90;4.65;;;;;;;;;;4979078;28;20054;-69
2022/08/23 01:36:34;;;;;;;11.05;4.95;;;;;;;;;;5011455;28;20489;-70
2022/08/23 01:39:06;;;;;;;12.25;5.13;;;;;;;;;;5045860;28;20440;-68
2022/08/23 01:41:37;;;;;;;13.63;4.95;;;;;;;;;;5054834;28;20063;-69
2022/08/23 01:44:09;;;;;;;9.57;4.40;;;;;;;;;;5002024;28;20041;-70
2022/08/23 01:46:43;;;;;;;9.93;5.15;;;;;;;;;;5030786;28;20057;-70
2022/08/23 01:49:15;;;;;;;11.30;4.57;;;;;;;;;;4998032;28;20057;-69
2022/08/23 01:51:46;;;;;;;17.48;5.05;;;;;;;;;;5014471;28;20060;-69
2022/08/23 01:54:17;;;;;;;10.98;5.05;;;;;;;;;;5010763;28;20050;-69
2022/08/23 01:56:48;;;;;;;12.13;4.60;;;;;;;;;;5010941;28;20050;-69
2022/08/23 01:59:18;;;;;;;12.38;4.32;;;;;;;;;;5010894;28;20050;-70
2022/08/23 02:01:53;;;;;;;14.85;4.65;;;;;;;;;;4990945;28;20050;-69
2022/08/23 02:04:26;;;;;;;13.80;4.68;;;;;;;;;;4994667;28;20490;-70
2022/08/23 02:06:56;;;;;;;;;;;;;;;;;;4991315;28;20061;-70
2022/08/23 02:09:26;;;;;;;11.63;5.05;;;;;;;;;;4984680;28;19928;-69
2022/08/23 02:11:59;;;;;;;11.70;5.75;;;;;;;;;;5030203;28;20060;-70
2022/08/23 02:14:31;;;;;;;11.23;4.55;;;;;;;;;;4974491;28;20160;-69
2022/08/23 02:17:03;;;;;;;12.35;4.80;;;;;;;;;;5026426;28;20446;-70
2022/08/23 02:19:35;;;;;;;9.07;4.15;;;;;;;;;;4994014;28;20062;-70
2022/08/23 02:22:07;;;;;;;10.48;4.45;;;;;;;;;;5010419;28;20056;-70
2022/08/23 02:24:44;;;;;;;12.13;4.80;;;;;;;;;;5037395;28;20089;-70
2022/08/23 02:27:16;;;;;;;13.65;4.75;;;;;;;;;;5045826;28;20057;-69
2022/08/23 02:29:48;;;;;;;9.68;4.78;;;;;;;;;;5029959;28;20056;-69
2022/08/23 02:32:21;;;;;;;9.52;4.28;;;;;;;;;;4984211;28;20051;-69
2022/08/23 02:34:56;;;;;;;11.40;4.53;;;;;;;;;;4970893;28;20080;-69
2022/08/23 02:37:35;;;;;;;10.93;4.22;;;;;;;;;;4951474;29;20051;-70
2022/08/23 02:40:06;;;;;;;10.02;4.32;;;;;;;;;;4905380;29;20048;-69
2022/08/23 02:42:36;;;;;;;11.57;4.70;;;;;;;;;;4913576;29;20055;-68
2022/08/23 02:45:08;;;;;;;12.05;4.60;;;;;;;;;;4910619;29;20056;-70
2022/08/23 02:47:45;;;;;;;11.05;4.88;;;;;;;;;;4888585;29;20478;-70
2022/08/23 02:50:27;;;;;;;10.55;4.93;;;;;;;;;;4898034;29;20049;-69
2022/08/23 02:52:58;;;;;;;9.90;4.00;;;;;;;;;;4879070;29;20072;-69
2022/08/23 02:55:29;;;;;;;15.48;4.90;;;;;;;;;;4875967;29;20065;-69
2022/08/23 02:57:59;;;;;;;11.23;4.65;;;;;;;;;;4857575;29;20065;-70
2022/08/23 03:00:30;;;;;;;15.30;4.85;;;;;;;;;;4857424;29;20525;-70
2022/08/23 03:03:00;;;;;;;11.13;4.97;;;;;;;;;;4879696;29;20102;-71
2022/08/23 03:05:31;;;;;;;10.18;4.13;;;;;;;;;;4880584;29;20069;-69
2022/08/23 03:08:02;;;;;;;9.50;4.35;;;;;;;;;;4903323;29;20657;-70
2022/08/23 03:10:43;;;;;;;10.90;4.97;;;;;;;;;;4889725;29;20052;-69
2022/08/23 03:13:14;;;;;;;11.82;4.80;;;;;;;;;;4923595;29;20055;-68
2022/08/23 03:15:47;;;;;;;14.23;4.28;;;;;;;;;;4916843;29;20385;-69
2022/08/23 03:18:18;;;;;;;10.15;4.35;;;;;;;;;;4945696;29;20059;-69
2022/08/23 03:20:48;;;;;;;11.38;5.68;;;;;;;;;;4970430;28;20050;-69
2022/08/23 03:23:19;;;;;;;9.57;5.40;;;;;;;;;;4970300;28;20410;-69
2022/08/23 03:25:49;;;;;;;9.65;4.97;;;;;;;;;;4983470;28;20065;-69
2022/08/23 03:28:26;;;;;;;11.68;4.50;;;;;;;;;;4989882;28;20065;-69
2022/08/23 03:30:57;;;;;;;10.77;4.53;;;;;;;;;;4957907;28;20055;-69
2022/08/23 03:33:27;;;;;;;13.10;5.07;;;;;;;;;;4977213;28;20050;-69
2022/08/23 03:35:59;;;;;;;12.30;4.55;;;;;;;;;;4973971;28;20051;-68
2022/08/23 03:38:31;;;;;;;10.73;4.63;;;;;;;;;;4942052;28;20064;-70
2022/08/23 03:41:05;;;;;;;11.02;4.78;;;;;;;;;;4929231;29;20052;-68
2022/08/23 03:43:37;;;;;;;12.63;4.80;;;;;;;;;;4929884;29;20059;-69
2022/08/23 03:46:07;;;;;;;9.90;4.97;;;;;;;;;;4954814;29;20062;-68
2022/08/23 03:48:41;;;;;;;11.52;5.28;;;;;;;;;;4915066;29;20415;-69
2022/08/23 03:51:11;;;;;;;14.50;4.40;;;;;;;;;;4935348;29;20055;-68
2022/08/23 03:53:42;;;;;;;19.75;5.13;;;;;;;;;;4935363;29;20063;-69
2022/08/23 03:56:37;;;;;;;10.93;4.68;;;;;;;;;;4935790;29;20056;-69
2022/08/23 03:59:13;;;;;;;10.10;4.85;;;;;;;;;;4920233;29;20173;-68
2022/08/23 04:01:43;;;;;;;10.02;4.43;;;;;;;;;;4950760;28;20055;-69
2022/08/23 04:04:13;;;;;;;9.90;4.32;;;;;;;;;;4954788;28;20063;-68
2022/08/23 04:07:02;;;;;;;13.25;4.82;;;;;;;;;;4954349;28;20105;-69
2022/08/23 04:09:33;;;;;;;11.60;4.25;;;;;;;;;;4954616;28;20523;-69
2022/08/23 04:12:03;;;;;;;12.18;4.30;;;;;;;;;;4903843;29;20068;-69
2022/08/23 04:14:46;;;;;;;10.60;4.30;;;;;;;;;;4897832;29;20068;-68
2022/08/23 04:17:17;;;;;;;10.45;4.38;;;;;;;;;;4924959;29;20056;-69
2022/08/23 04:19:50;;;;;;;13.05;4.47;;;;;;;;;;4914569;29;20044;-69
2022/08/23 04:22:21;;;;;;;9.20;4.25;;;;;;;;;;4916532;29;20056;-68
2022/08/23 04:24:51;;;;;;;12.20;4.80;;;;;;;;;;4931747;29;20440;-68
2022/08/23 04:27:22;;;;;;;9.77;4.53;;;;;;;;;;4934952;29;20048;-69
2022/08/23 04:29:52;;;;;;;12.27;4.38;;;;;;;;;;4898633;29;20737;-68
2022/08/23 04:32:22;;;;;;;12.00;5.28;;;;;;;;;;4933270;29;20082;-68
2022/08/23 04:34:58;;;;;;;11.88;4.80;;;;;;;;;;4915931;29;20048;-68
2022/08/23 04:37:29;;;;;;;8.60;4.30;;;;;;;;;;4934724;29;20055;-68
2022/08/23 04:42:48;;;;;;;9.85;4.53;;;;;;;;;;4869394;29;20056;-69
2022/08/23 04:45:18;;;;;;;11.48;4.90;;;;;;;;;;4901378;29;20105;-68
2022/08/23 04:47:52;;;;;;;11.10;4.85;;;;;;;;;;4920366;29;20063;-68
2022/08/23 04:50:24;;;;;;;16.85;4.53;;;;;;;;;;4896530;29;20060;-69
2022/08/23 04:53:31;;;;;;;10.85;4.50;;;;;;;;;;4859951;29;20510;-67
2022/08/23 04:56:22;;;;;;;13.40;4.72;;;;;;;;;;4821912;29;20058;-68
2022/08/23 04:58:54;;;;;;;11.23;4.80;;;;;;;;;;4859151;29;20053;-68
2022/08/23 05:01:26;;;;;;;11.50;4.35;;;;;;;;;;4859475;29;20053;-69
2022/08/23 05:03:57;;;;;;;17.52;5.10;;;;;;;;;;4876814;29;20045;-69
2022/08/23 05:06:30;;;;;;;13.30;4.82;;;;;;;;;;4876763;29;20060;-68
2022/08/23 05:09:00;;;;;;;13.68;5.18;;;;;;;;;;4874203;29;20058;-68
2022/08/23 05:11:32;;;;;;;14.45;5.22;;;;;;;;;;4840601;29;20062;-68
2022/08/23 05:14:02;;;;;;;14.20;4.72;;;;;;;;;;4852499;29;20055;-69
2022/08/23 05:16:33;;;;;;;12.75;5.03;;;;;;;;;;4840663;29;20061;-69
2022/08/23 05:19:09;;;;;;;17.10;5.93;;;;;;;;;;4855042;29;20057;-69
2022/08/23 05:21:45;;;;;;;9.95;4.80;;;;;;;;;;4840878;29;20062;-70
2022/08/23 05:24:15;;;;;;;11.05;5.05;;;;;;;;;;4859204;29;20064;-69
2022/08/23 05:26:47;;;;;;;13.40;5.43;;;;;;;;;;4925395;28;20052;-69
2022/08/23 05:29:20;;;;;;;13.98;5.18;;;;;;;;;;4991840;28;20059;-69
2022/08/23 05:31:51;;;;;;;14.48;5.18;;;;;;;;;;4953184;29;20066;-69
2022/08/23 05:34:24;;;;;;;11.27;4.93;;;;;;;;;;4933814;29;20059;-69
2022/08/23 05:36:57;;;;;;;13.23;4.95;;;;;;;;;;4909099;29;20060;-69
2022/08/23 05:39:39;;;;;;;14.63;5.22;;;;;;;;;;4896149;29;20052;-69
2022/08/23 05:42:13;;;;;;;12.85;4.82;;;;;;;;;;4914832;29;20056;-70
2022/08/23 05:44:44;;;;;;;12.90;5.28;;;;;;;;;;4900521;29;20052;-69
2022/08/23 05:47:19;;;;;;;13.55;5.15;;;;;;;;;;4914728;29;20052;-69
2022/08/23 05:50:09;;;;;;;13.02;5.20;;;;;;;;;;4878919;29;20238;-70
2022/08/23 05:52:40;;;;;;;18.52;5.45;;;;;;;;;;4893527;29;20056;-69
2022/08/23 05:55:10;;;;;;;12.57;4.78;;;;;;;;;;4914211;29;20204;-69
2022/08/23 05:57:41;;;;;;;14.82;4.68;;;;;;;;;;4914076;29;20056;-69
2022/08/23 06:00:14;;;;;;;13.68;5.68;;;;;;;;;;4952394;29;20059;-69
2022/08/23 06:02:48;;;;;;;10.60;4.53;;;;;;;;;;4952750;29;20059;-70
2022/08/23 06:05:20;;;;;;;11.10;4.63;;;;;;;;;;4907168;29;20056;-69
2022/08/23 06:07:51;;;;;;;12.57;4.82;;;;;;;;;;4971332;28;20047;-69
2022/08/23 06:10:24;;;;;;;17.05;5.07;;;;;;;;;;4969037;28;20066;-69
2022/08/23 06:13:03;;;;;;;14.15;4.72;;;;;;;;;;4897145;29;20064;-69
2022/08/23 06:15:33;;;;;;;9.20;4.22;;;;;;;;;;4910866;29;20049;-69
2022/08/23 06:18:04;;;;;;;11.90;4.80;;;;;;;;;;4914009;29;20063;-69
2022/08/23 06:20:35;;;;;;;8.70;4.38;;;;;;;;;;4895283;29;20053;-70
2022/08/23 06:23:08;;;;;;;11.20;4.97;;;;;;;;;;4890973;29;20061;-69
2022/08/23 06:25:41;;;;;;;8.75;4.53;;;;;;;;;;4883367;29;20102;-70
2022/08/23 06:28:16;;;;;;;8.45;3.95;;;;;;;;;;4913859;29;20052;-69
2022/08/23 06:30:56;;;;;;;;;;;;;;;;;;4914577;29;20060;-69
2022/08/23 06:33:40;;;;;;;9.07;4.78;;;;;;;;;;4914069;29;20422;-69
2022/08/23 06:36:35;;;;;;;15.82;5.22;;;;;;;;;;4895544;29;20137;-69
2022/08/23 06:39:14;;;;;;;10.05;4.70;;;;;;;;;;4891962;29;20075;-70
2022/08/23 06:42:04;;;;;;;9.00;4.20;;;;;;;;;;4871664;29;20080;-69
2022/08/23 06:45:02;;;;;;;13.05;4.93;;;;;;;;;;4826542;29;20061;-69
2022/08/23 06:47:48;;;;;;;12.73;4.68;;;;;;;;;;4857475;29;20061;-69
2022/08/23 06:50:19;;;;;;;9.60;4.22;;;;;;;;;;4863963;29;20049;-68
2022/08/23 06:53:08;;;;;;;10.43;4.28;;;;;;;;;;4876112;29;20053;-69
2022/08/23 06:55:58;;;;;;;11.30;4.40;;;;;;;;;;4828075;29;20135;-68
2022/08/23 06:58:40;;;;;;;11.13;4.00;;;;;;;;;;4854738;29;20053;-68
2022/08/23 07:01:56;;;;;;;8.15;4.00;;;;;;;;;;4943561;29;20054;-68
2022/08/23 07:04:52;;;;;;;11.48;4.65;;;;;;;;;;4906865;29;20052;-69
2022/08/23 07:07:45;;;;;;;11.25;3.97;;;;;;;;;;4952331;28;20051;-68
2022/08/23 07:10:16;;;;;;;9.35;4.25;;;;;;;;;;4937683;28;20053;-69
2022/08/23 07:12:48;;;;;;;11.57;4.32;;;;;;;;;;4951933;28;20069;-68
2022/08/23 07:15:21;;;;;;;10.25;4.75;;;;;;;;;;4951366;28;20425;-68
2022/08/23 07:17:52;;;;;;;9.75;4.13;;;;;;;;;;4951591;29;20052;-68
2022/08/23 07:20:22;;;;;;;10.88;4.18;;;;;;;;;;4951129;29;20506;-68
2022/08/23 07:22:52;;;;;;;10.68;3.83;;;;;;;;;;4951475;29;20066;-68
2022/08/23 07:25:23;;;;;;;9.02;4.05;;;;;;;;;;4951496;29;20066;-68
2022/08/23 07:28:00;;;;;;;10.98;4.65;;;;;;;;;;4940672;28;20501;-69
2022/08/23 07:30:30;;;;;;;14.48;4.47;;;;;;;;;;4913465;29;20075;-68
2022/08/23 07:33:01;;;;;;;12.18;4.57;;;;;;;;;;4970319;28;20511;-68
2022/08/23 07:35:48;;;;;;;12.30;4.68;;;;;;;;;;4951156;29;20062;-68
2022/08/23 07:38:20;;;;;;;11.50;4.47;;;;;;;;;;4893761;29;20421;-68
2022/08/23 07:41:00;;;;;;;10.20;3.97;;;;;;;;;;4912831;29;20083;-68
2022/08/23 07:43:32;;;;;;;9.00;4.15;;;;;;;;;;4894186;29;20410;-69
2022/08/23 07:46:04;;;;;;;11.18;4.20;;;;;;;;;;4839274;29;20054;-68
2022/08/23 07:48:36;;;;;;;9.23;3.58;;;;;;;;;;4838648;29;20073;-69
2022/08/23 07:51:34;;;;;;;10.48;4.03;;;;;;;;;;4856725;29;20057;-68
2022/08/23 07:54:08;;;;;;;8.75;3.80;;;;;;;;;;4872352;29;20414;-69
2022/08/23 07:56:49;;;;;;;13.75;4.00;;;;;;;;;;4893906;29;20060;-68
2022/08/23 07:59:39;;;;;;;10.68;4.20;;;;;;;;;;4875421;29;20061;-68
2022/08/23 08:02:41;;;;;;;7.88;3.20;;;;;;;;;;4852833;29;20060;-69
2022/08/23 08:05:20;;;;;;;10.45;4.03;;;;;;;;;;4836163;29;20507;-69
2022/08/23 08:07:52;;;;;;;12.95;4.00;;;;;;;;;;4912723;29;20429;-69
2022/08/23 08:10:23;;;;;;;11.88;5.47;;;;;;;;;;4881568;29;20527;-69
2022/08/23 08:12:53;;;;;;;10.13;4.53;;;;;;;;;;4910794;29;20083;-69
2022/08/23 08:15:25;;;;;;;12.55;4.60;;;;;;;;;;4913967;29;20071;-68
2022/08/23 08:18:04;;;;;;;9.90;4.28;;;;;;;;;;4893671;29;20064;-69
2022/08/23 08:20:55;;;;;;;10.93;4.50;;;;;;;;;;4895732;29;20052;-69
2022/08/23 08:23:45;;;;;;;10.23;4.25;;;;;;;;;;4889949;29;20052;-68
2022/08/23 08:26:48;;;;;;;8.90;4.07;;;;;;;;;;4927968;29;20071;-68
2022/08/23 08:29:19;;;;;;;8.65;3.67;;;;;;;;;;4893487;29;20568;-68
2022/08/23 08:31:51;;;;;;;11.57;4.28;;;;;;;;;;4931439;29;20063;-68
2022/08/23 08:34:23;;;;;;;8.02;3.80;;;;;;;;;;4916225;29;20056;-68
2022/08/23 08:36:57;;;;;;;11.88;4.43;;;;;;;;;;4893749;29;20055;-68
2022/08/23 08:39:30;;;;;;;12.52;4.57;;;;;;;;;;4915777;29;20600;-69
2022/08/23 08:42:12;;;;;;;11.40;4.15;;;;;;;;;;4916129;29;20394;-68
2022/08/23 08:44:59;;;;;;;9.02;3.65;;;;;;;;;;4871294;29;20057;-69
2022/08/23 08:47:41;;;;;;;9.25;3.78;;;;;;;;;;4848744;29;20084;-69
2022/08/23 08:50:16;;;;;;;12.38;4.30;;;;;;;;;;4878335;29;20061;-69
2022/08/23 08:52:53;;;;;;;8.65;3.72;;;;;;;;;;4884932;29;20052;-68
2022/08/23 08:55:48;;;;;;;11.25;3.70;;;;;;;;;;4914708;29;20052;-67
2022/08/23 08:58:49;;;;;;;7.82;3.70;;;;;;;;;;4953495;28;20058;-68
2022/08/23 09:01:24;;;;;;;9.27;3.88;;;;;;;;;;4953883;28;20059;-68
2022/08/23 09:03:56;;;;;;;7.55;3.58;;;;;;;;;;4953675;28;20051;-68
2022/08/23 09:06:56;;;;;;;8.18;3.22;;;;;;;;;;4948121;28;20051;-69
2022/08/23 09:09:34;;;;;;;11.10;4.13;;;;;;;;;;4856250;29;20048;-69
2022/08/23 09:12:19;;;;;;;12.35;3.58;;;;;;;;;;4878001;29;20061;-68
2022/08/23 09:15:09;;;;;;;8.55;3.63;;;;;;;;;;4877757;29;20057;-67
2022/08/23 09:17:50;;;;;;;8.70;3.80;;;;;;;;;;4864199;29;20216;-68
2022/08/23 09:20:23;;;;;;;11.65;3.88;;;;;;;;;;4877315;29;20502;-68
2022/08/23 09:23:22;;;;;;;10.75;4.15;;;;;;;;;;4877498;29;20059;-68
2022/08/23 09:26:00;;;;;;;10.82;3.60;;;;;;;;;;4853647;29;20087;-69
2022/08/23 09:28:37;;;;;;;10.55;3.92;;;;;;;;;;4829133;29;20057;-68
2022/08/23 09:31:10;;;;;;;9.90;3.70;;;;;;;;;;4873155;29;20053;-69
2022/08/23 09:33:44;;;;;;;9.95;3.80;;;;;;;;;;4880583;29;20425;-68
2022/08/23 09:36:37;;;;;;;10.80;3.53;;;;;;;;;;4851366;29;20053;-68
2022/08/23 09:39:30;;;;;;;10.00;3.92;;;;;;;;;;4877442;29;20533;-68
2022/08/23 09:42:26;;;;;;;11.73;5.10;;;;;;;;;;4895724;29;20122;-68
2022/08/23 09:44:56;;;;;;;9.65;3.72;;;;;;;;;;4881812;29;20064;-68
2022/08/23 09:47:40;;;;;;;10.57;3.75;;;;;;;;;;4864659;29;20505;-69
2022/08/23 09:50:32;;;;;;;9.98;4.47;;;;;;;;;;4896029;29;20052;-67
2022/08/23 09:53:10;;;;;;;13.48;4.20;;;;;;;;;;4914261;29;20060;-68
2022/08/23 09:55:47;;;;;;;9.10;3.42;;;;;;;;;;4901470;29;20533;-68
2022/08/23 09:58:34;;;;;;;11.80;4.53;;;;;;;;;;4895527;29;20051;-68
2022/08/23 10:01:12;;;;;;;10.27;4.03;;;;;;;;;;4921821;29;20060;-68
2022/08/23 10:04:04;;;;;;;10.73;3.90;;;;;;;;;;4933334;29;20436;-69
2022/08/23 10:06:36;;;;;;;9.40;3.92;;;;;;;;;;4937868;29;20059;-67
2022/08/23 10:09:09;;;;;;;9.63;3.40;;;;;;;;;;4952476;29;20584;-67
2022/08/23 10:11:45;;;;;;;11.02;3.88;;;;;;;;;;4948436;29;20052;-67
2022/08/23 10:14:21;;;;;;;10.60;4.05;;;;;;;;;;4933369;29;20063;-68
2022/08/23 10:17:22;;;;;;;9.13;3.97;;;;;;;;;;4914069;29;20520;-69
2022/08/23 10:20:04;;;;;;;9.23;3.75;;;;;;;;;;4892817;29;20057;-68
2022/08/23 10:23:18;;;;;;;10.65;4.32;;;;;;;;;;4839220;29;20058;-68
2022/08/23 10:25:57;;;;;;;10.02;4.07;;;;;;;;;;4821360;29;20054;-67
2022/08/23 10:32:14;;;;;;;10.02;4.25;;;;;;;;;;4803267;29;20530;-68
2022/08/23 10:35:21;;;;;;;11.63;5.03;;;;;;;;;;4854107;29;20117;-68
2022/08/23 10:37:57;;;;;;;14.43;4.78;;;;;;;;;;4857602;29;20506;-69
2022/08/23 10:40:35;;;;;;;12.00;4.30;;;;;;;;;;4861271;29;20049;-68
2022/08/23 10:43:20;;;;;;;12.48;4.30;;;;;;;;;;4894519;29;20580;-69
2022/08/23 10:45:56;;;;;;;13.07;4.95;;;;;;;;;;4894708;29;20079;-69
2022/08/23 10:48:54;;;;;;;11.23;4.53;;;;;;;;;;4894725;29;20071;-69
2022/08/23 10:51:28;;;;;;;10.48;4.60;;;;;;;;;;4894635;29;20060;-67
2022/08/23 10:54:17;;;;;;;16.30;5.32;;;;;;;;;;4894421;29;20411;-67
2022/08/23 10:56:47;;;;;;;12.68;5.40;;;;;;;;;;4879108;29;20060;-68
2022/08/23 10:59:26;;;;;;;16.58;4.93;;;;;;;;;;4874542;29;20069;-70
2022/08/23 11:02:20;;;;;;;;;;;;;;;;;;4877987;29;20068;-70
2022/08/23 11:05:02;;;;;;;;;;;;;;;;;;4913921;29;20371;-67
2022/08/23 11:07:40;;;;;;;11.80;4.30;;;;;;;;;;4913271;29;19922;-68
2022/08/23 11:10:25;;;;;;;18.48;5.15;;;;;;;;;;4894303;29;20052;-67
2022/08/23 11:13:06;;;;;;;14.98;5.10;;;;;;;;;;4869467;29;20498;-70
2022/08/23 11:15:44;;;;;;;16.23;6.43;;;;;;;;;;4817205;29;20462;-68
2022/08/23 11:18:44;;;;;;;17.02;5.65;;;;;;;;;;4838791;29;20454;-67
2022/08/23 11:21:32;;;;;;;15.98;5.78;;;;;;;;;;4856823;29;20079;-68
2022/08/23 11:24:07;;;;;;;13.15;6.18;;;;;;;;;;4875558;29;20096;-68
2022/08/23 11:26:43;;;;;;;13.70;5.35;;;;;;;;;;4887676;29;20060;-68
2022/08/23 11:29:23;;;;;;;11.77;4.43;;;;;;;;;;4894402;29;20405;-67
2022/08/23 11:32:19;;;;;;;15.38;5.30;;;;;;;;;;4933031;28;20048;-67
2022/08/23 11:35:29;;;;;;;12.52;5.20;;;;;;;;;;4900641;29;20056;-68
2022/08/23 11:38:04;;;;;;;14.02;5.32;;;;;;;;;;4931985;29;20056;-67
2022/08/23 11:40:50;;;;;;;9.88;3.85;;;;;;;;;;4913985;29;20067;-67
2022/08/23 11:43:39;;;;;;;16.63;4.82;;;;;;;;;;4912653;29;20755;-67
2022/08/23 11:46:25;;;;;;;11.23;4.38;;;;;;;;;;4913068;29;20056;-68
2022/08/23 11:49:29;;;;;;;15.98;6.80;;;;;;;;;;4931716;29;20531;-68
2022/08/23 11:52:46;;;;;;;16.58;6.72;;;;;;;;;;4915497;29;20610;-68
2022/08/23 11:55:30;;;;;;;16.13;6.68;;;;;;;;;;4894785;29;20056;-67
2022/08/23 11:58:32;;;;;;;13.20;5.57;;;;;;;;;;4881983;29;20068;-67
2022/08/23 12:01:09;;;;;;;9.80;4.43;;;;;;;;;;4894295;29;20686;-67
2022/08/23 12:04:00;;;;;;;7.97;3.63;;;;;;;;;;4894219;29;20049;-67
2022/08/23 12:06:54;;;;;;;9.20;3.95;;;;;;;;;;4863949;29;20545;-68
2022/08/23 12:09:25;;;;;;;11.43;4.70;;;;;;;;;;4859489;29;20054;-67
2022/08/23 12:11:58;;;;;;;10.13;4.32;;;;;;;;;;4846819;29;20054;-67
2022/08/23 12:14:35;;;;;;;;;;;;;;;;;;4892233;29;20055;-68
2022/08/23 12:17:25;;;;;;;10.35;4.57;;;;;;;;;;4954715;29;19922;-69
2022/08/23 12:20:06;;;;;;;7.50;3.25;;;;;;;;;;4954521;28;20474;-70
2022/08/23 12:23:18;;;;;;;8.10;3.25;;;;;;;;;;4954691;28;20071;-69
2022/08/23 12:26:12;;;;;;;8.63;3.67;;;;;;;;;;4925069;28;20451;-68
2022/08/23 12:28:48;;;;;;;8.07;3.67;;;;;;;;;;4973705;28;20059;-69
2022/08/23 12:31:29;;;;;;;7.22;3.17;;;;;;;;;;4956666;28;20045;-70
2022/08/23 12:34:05;;;;;;;5.00;2.33;;;;;;;;;;5032544;28;20057;-69
2022/08/23 12:36:47;;;;;;;7.18;3.42;;;;;;;;;;5032554;28;20059;-67
2022/08/23 12:39:30;;;;;;;6.95;3.33;;;;;;;;;;4999649;28;20525;-69
2022/08/23 12:42:16;;;;;;;16.05;6.82;;;;;;;;;;5032439;28;20536;-69
2022/08/23 12:45:11;;;;;;;7.95;3.25;;;;;;;;;;5032229;28;20062;-69
2022/08/23 12:47:45;;;;;;;13.25;7.30;;;;;;;;;;5002085;28;20084;-69
2022/08/23 12:50:25;;;;;;;11.82;5.32;;;;;;;;;;4976529;28;20062;-70
2022/08/23 12:53:03;;;;;;;;;;;;;;;;;;4993073;28;20074;-69
2022/08/23 12:55:40;;;;;;;7.05;3.00;;;;;;;;;;4992792;28;19922;-69
2022/08/23 12:58:13;;;;;;;7.30;3.00;;;;;;;;;;4992964;28;20042;-69
2022/08/23 13:00:56;;;;;;;6.43;3.00;;;;;;;;;;5035528;28;20056;-69
2022/08/23 13:03:37;;;;;;;7.88;3.30;;;;;;;;;;5035335;28;20737;-69
2022/08/23 13:06:27;;;;;;;15.00;8.30;;;;;;;;;;5014837;28;20417;-73
2022/08/23 13:09:17;;;;;;;9.60;3.15;;;;;;;;;;5019108;28;20061;-69
2022/08/23 13:11:48;;;;;;;7.38;2.92;;;;;;;;;;5018463;28;20045;-69
2022/08/23 13:14:22;;;;;;;6.32;3.25;;;;;;;;;;5051627;28;20067;-68
2022/08/23 13:16:54;;;;;;;7.30;3.00;;;;;;;;;;5035489;28;20067;-68
2022/08/23 13:19:29;;;;;;;6.82;3.10;;;;;;;;;;5051681;28;20055;-69
2022/08/23 13:22:12;;;;;;;7.43;2.80;;;;;;;;;;5018237;28;20053;-69
2022/08/23 13:24:44;;;;;;;6.55;3.17;;;;;;;;;;5051539;28;20053;-69
2022/08/23 13:27:22;;;;;;;7.15;3.05;;;;;;;;;;5051375;28;20405;-71
2022/08/23 13:30:18;;;;;;;6.78;3.10;;;;;;;;;;4986474;28;20055;-71
2022/08/23 13:33:00;;;;;;;7.88;3.75;;;;;;;;;;5051050;28;20057;-72
2022/08/23 13:35:39;;;;;;;5.00;2.53;;;;;;;;;;5051259;28;20052;-71
2022/08/23 13:38:29;;;;;;;6.78;3.13;;;;;;;;;;5018151;28;20084;-72
2022/08/23 13:41:09;;;;;;;7.40;3.03;;;;;;;;;;5051138;28;20056;-73
2022/08/23 13:43:49;;;;;;;6.93;2.92;;;;;;;;;;5044986;28;20048;-71
2022/08/23 13:46:23;;;;;;;6.47;3.20;;;;;;;;;;5021252;28;20060;-72
2022/08/23 13:49:05;;;;;;;6.68;3.30;;;;;;;;;;5057176;28;20057;-73
2022/08/23 13:51:41;;;;;;;5.60;2.90;;;;;;;;;;5105106;28;20374;-71
2022/08/23 13:54:15;;;;;;;7.50;3.33;;;;;;;;;;5073195;28;20590;-72
2022/08/23 13:56:59;;;;;;;6.85;3.70;;;;;;;;;;5073162;28;20040;-69
2022/08/23 13:59:31;;;;;;;10.02;4.10;;;;;;;;;;5073201;28;20508;-71
2022/08/23 14:02:10;;;;;;;5.35;3.25;;;;;;;;;;5073189;28;20052;-71
2022/08/23 14:04:41;;;;;;;5.95;3.05;;;;;;;;;;5073054;28;20590;-72
2022/08/23 14:07:12;;;;;;;7.13;3.30;;;;;;;;;;5110953;28;20050;-71
2022/08/23 14:09:43;;;;;;;7.45;4.05;;;;;;;;;;5111112;28;20442;-71
2022/08/23 14:12:24;;;;;;;7.60;3.20;;;;;;;;;;5070376;28;20160;-71
2022/08/23 14:15:00;;;;;;;10.75;3.67;;;;;;;;;;5070474;28;20056;-73
2022/08/23 14:17:42;;;;;;;6.13;3.10;;;;;;;;;;5070220;28;20057;-72
2022/08/23 14:20:14;;;;;;;6.07;3.40;;;;;;;;;;5054023;28;20052;-73
2022/08/23 14:23:05;;;;;;;8.73;3.55;;;;;;;;;;5070216;28;20075;-70
2022/08/23 14:25:40;;;;;;;6.20;2.88;;;;;;;;;;5054733;28;20075;-72
2022/08/23 14:28:11;;;;;;;6.40;3.22;;;;;;;;;;5020499;28;20056;-72
2022/08/23 14:30:42;;;;;;;9.45;3.25;;;;;;;;;;5036845;28;20045;-71
2022/08/23 14:33:13;;;;;;;7.65;3.35;;;;;;;;;;5070093;28;20056;-72
2022/08/23 14:35:43;;;;;;;6.32;3.38;;;;;;;;;;5070105;28;20045;-71
2022/08/23 14:38:14;;;;;;;7.75;3.28;;;;;;;;;;5020340;28;20056;-73
2022/08/23 14:40:53;;;;;;;5.30;2.72;;;;;;;;;;5053974;28;20052;-71
2022/08/23 14:43:25;;;;;;;;;;;;;;;;;;5070463;28;20060;-74
2022/08/23 14:45:56;;;;;;;6.07;2.97;;;;;;;;;;5011118;28;19965;-73
2022/08/23 14:48:28;;;;;;;6.78;3.25;;;;;;;;;;4990330;28;20529;-73
2022/08/23 14:50:59;;;;;;;6.68;2.80;;;;;;;;;;5013701;28;20053;-72
2022/08/23 14:53:32;;;;;;;7.18;3.00;;;;;;;;;;5029801;28;20076;-73
2022/08/23 14:56:03;;;;;;;6.53;3.03;;;;;;;;;;4990540;28;20046;-73
2022/08/23 14:58:51;;;;;;;6.10;3.03;;;;;;;;;;4974658;28;20136;-71
2022/08/23 15:01:22;;;;;;;5.57;3.03;;;;;;;;;;4990635;28;20443;-73
2022/08/23 15:03:53;;;;;;;6.13;2.65;;;;;;;;;;4974336;28;20046;-71
2022/08/23 15:06:24;;;;;;;6.25;3.00;;;;;;;;;;4993795;28;20042;-72
2022/08/23 15:08:54;;;;;;;8.80;3.90;;;;;;;;;;5010105;28;20062;-73
2022/08/23 15:11:25;;;;;;;5.28;2.50;;;;;;;;;;4993890;28;20064;-74
2022/08/23 15:14:16;;;;;;;7.15;3.78;;;;;;;;;;5010003;28;20490;-73
2022/08/23 15:16:46;;;;;;;5.38;2.80;;;;;;;;;;4993776;28;20430;-74
2022/08/23 15:19:16;;;;;;;5.93;2.63;;;;;;;;;;4994163;28;20058;-73
2022/08/23 15:21:48;;;;;;;5.63;2.40;;;;;;;;;;4989926;28;20049;-74
2022/08/23 15:24:19;;;;;;;6.35;2.78;;;;;;;;;;5021978;28;20064;-73
2022/08/23 15:26:52;;;;;;;9.35;2.67;;;;;;;;;;5029474;28;20057;-74
2022/08/23 15:29:24;;;;;;;5.95;2.53;;;;;;;;;;5029189;28;20050;-73
2022/08/23 15:31:55;;;;;;;6.22;2.50;;;;;;;;;;5029145;28;20049;-73
2022/08/23 15:34:26;;;;;;;5.95;2.80;;;;;;;;;;4980450;28;20057;-73
2022/08/23 15:36:58;;;;;;;5.72;2.30;;;;;;;;;;5049204;28;20053;-74
2022/08/23 15:39:28;;;;;;;6.72;2.28;;;;;;;;;;5049458;28;20637;-75
2022/08/23 15:41:59;;;;;;;5.47;2.40;;;;;;;;;;5049433;28;20063;-76
2022/08/23 15:44:29;;;;;;;5.57;2.38;;;;;;;;;;5049482;28;20049;-73
2022/08/23 15:47:00;;;;;;;4.60;2.38;;;;;;;;;;5049191;28;20063;-80
2022/08/23 15:49:32;;;;;;;5.20;2.63;;;;;;;;;;5065546;28;20064;-74
2022/08/23 15:52:05;;;;;;;5.22;2.50;;;;;;;;;;5048899;28;20060;-75